Startpagina
METAR-TAF:

METAR-TAF

Vliegvelden :

Dar es Salaam, Tanzania

Julius Nyerere International Airport

breedte: 06-52S, lengte: 039-12E, hoogte: 55 m

Actueel weer

Dit bericht is 2 uur en het 16 minuten geleden gemaakt, om 18:00 UTC
Wind 8 kt uit het noordoosten
Temperatuur 28°C
Vochtigheid 84%
Druk 1009 hPa
Zicht 10 km of meer
Weinig wolken op 2100 ft

METAR: HTDA 241800Z 05008KT 9999 FEW021 28/25 Q1009 NOSIG

Tijdstip: 23:16 (20:16 UTC)

Verwachting

Dit bericht is 3 uur en het 16 minuten geleden gemaakt, om 17:00 UTC
Verwachting geldig van 24 om 18 UTC tot 25 om 24 UTC
Wind 10 kt uit het noordoosten
Zicht 10 km of meer
Weinig wolken op 2100 ft
Wijzigt naar
van 25 om 00 UTC tot 25 om 03 UTC
Wind kt uit het noorden
Gebroken wolken op 1600 ft
Wijzigt naar
van 25 om 07 UTC tot 25 om 10 UTC
Wind 10 kt uit het noordnoordoosten

TAF: HTDA 241700Z 2418/2524 05010KT 9999 FEW021 BECMG 2500/2503 00000KT BKN016 BECMG 2507/2510 03010KT

Waarnemingen en weersverwachtingen van meer dan 4000 vliegvelden (METAR en TAF).

De beschikbare stations zijn de gele en rode punten op de kaart.

Ga met uw muis naar het station om de naam te zien.

Klik dan om waarnemingen en weersverwachtingen te zien.

kaart wijzigen: klik op de groene knoppen met een zwart kruis om in te zoomen, op de groene knop met een streepje om uit te zoomen of op de groene pijlen voor aangrenzende kaarten.


METAR-TAF: